createdAt,value
2022-10-22T00:00:32.606Z,100344.34
2022-10-22T00:02:59.518Z,100343.66
2022-10-22T00:05:26.631Z,100335.69
2022-10-22T00:07:53.599Z,100336.38
2022-10-22T00:10:20.657Z,100336.50
2022-10-22T00:12:47.573Z,100330.69
2022-10-22T00:15:14.655Z,100330.50
2022-10-22T00:17:41.878Z,100336.41
2022-10-22T00:20:09.555Z,100333.81
2022-10-22T00:22:36.477Z,100331.28
2022-10-22T00:25:03.687Z,100336.41
2022-10-22T00:27:31.052Z,100342.25
2022-10-22T00:29:58.206Z,100334.63
2022-10-22T00:32:25.160Z,100338.22
2022-10-22T00:34:52.265Z,100350.19
2022-10-22T00:37:19.285Z,100342.31
2022-10-22T00:39:46.243Z,100347.63
2022-10-22T00:42:23.752Z,100334.03
2022-10-22T00:45:11.596Z,100320.34
2022-10-22T00:47:46.887Z,100324.38
2022-10-22T00:50:25.151Z,100325.66
2022-10-22T00:52:52.451Z,100322.53
2022-10-22T00:55:20.750Z,100320.34
2022-10-22T00:57:48.130Z,100314.19
2022-10-22T01:00:16.453Z,100313.50
2022-10-22T01:02:43.848Z,100311.66
2022-10-22T01:05:11.428Z,100312.00
2022-10-22T01:07:43.276Z,100298.84
2022-10-22T01:10:24.661Z,100305.97
2022-10-22T01:13:03.931Z,100301.81
2022-10-22T01:15:30.835Z,100299.38
2022-10-22T01:18:10.392Z,100299.84
2022-10-22T01:20:46.380Z,100288.84
2022-10-22T01:23:50.471Z,100289.53
2022-10-22T01:26:44.029Z,100287.22
2022-10-22T01:29:16.079Z,100284.50
2022-10-22T01:32:07.839Z,100285.19
2022-10-22T01:34:36.750Z,100290.88
2022-10-22T01:37:04.048Z,100289.81
2022-10-22T01:39:31.648Z,100285.03
2022-10-22T01:41:58.877Z,100279.69
2022-10-22T01:47:42.831Z,100282.59
2022-10-22T01:50:25.061Z,100280.56
2022-10-22T01:53:16.117Z,100278.06
2022-10-22T01:55:54.668Z,100266.03
2022-10-22T01:58:35.581Z,100276.09
2022-10-22T02:01:11.406Z,100275.56
2022-10-22T02:03:51.597Z,100265.19
2022-10-22T02:06:22.637Z,100272.13
2022-10-22T02:08:51.254Z,100259.34
2022-10-22T02:11:18.327Z,100267.69
2022-10-22T02:13:49.201Z,100271.25
2022-10-22T02:16:21.652Z,100266.63
2022-10-22T02:18:54.040Z,100269.13
2022-10-22T02:21:21.031Z,100263.84
2022-10-22T02:23:48.449Z,100257.31
2022-10-22T02:26:35.886Z,100250.97
2022-10-22T02:29:06.988Z,100249.88
2022-10-22T02:31:39.060Z,100248.19
2022-10-22T02:34:11.303Z,100257.97
2022-10-22T02:36:40.512Z,100263.59
2022-10-22T02:39:10.029Z,100267.22
2022-10-22T02:41:38.153Z,100267.38
2022-10-22T02:44:10.244Z,100267.06
2022-10-22T02:46:39.096Z,100263.66
2022-10-22T02:49:06.063Z,100256.31
2022-10-22T02:51:33.090Z,100260.06
2022-10-22T02:54:00.101Z,100252.28
2022-10-22T02:56:27.033Z,100263.00
2022-10-22T02:58:53.889Z,100257.84
2022-10-22T03:01:21.046Z,100249.13
2022-10-22T03:03:48.080Z,100249.81
2022-10-22T03:06:15.166Z,100251.50
2022-10-22T03:08:42.417Z,100252.78
2022-10-22T03:11:09.529Z,100250.41
2022-10-22T03:13:36.791Z,100246.81
2022-10-22T03:16:04.006Z,100246.63
2022-10-22T03:18:31.086Z,100253.97
2022-10-22T03:21:15.747Z,100250.75
2022-10-22T03:23:43.845Z,100253.91
2022-10-22T03:26:13.328Z,100255.50
2022-10-22T03:28:41.436Z,100254.91
2022-10-22T03:31:09.526Z,100250.41
2022-10-22T03:33:37.892Z,100254.22
2022-10-22T03:36:07.031Z,100249.66
2022-10-22T03:38:36.963Z,100261.22
2022-10-22T03:41:04.377Z,100259.28
2022-10-22T03:43:31.349Z,100257.22
2022-10-22T03:45:58.278Z,100242.63
2022-10-22T03:48:25.223Z,100248.88
2022-10-22T03:50:52.331Z,100249.75
2022-10-22T03:53:19.266Z,100245.41
2022-10-22T03:55:46.893Z,100236.00
2022-10-22T03:58:13.888Z,100240.25
2022-10-22T04:00:40.936Z,100239.88
2022-10-22T04:03:07.881Z,100222.44
2022-10-22T04:05:34.862Z,100231.31
2022-10-22T04:08:01.776Z,100224.69
2022-10-22T04:10:28.807Z,100226.38
2022-10-22T04:12:55.997Z,100221.69
2022-10-22T04:15:22.943Z,100224.69
2022-10-22T04:17:49.897Z,100233.94
2022-10-22T04:20:16.997Z,100240.84
2022-10-22T04:22:43.961Z,100234.22
2022-10-22T04:25:10.935Z,100233.75
2022-10-22T04:27:38.154Z,100225.41
2022-10-22T04:30:06.861Z,100223.94
2022-10-22T04:32:33.793Z,100222.63
2022-10-22T04:35:00.815Z,100218.78
2022-10-22T04:37:27.715Z,100225.13
2022-10-22T04:39:57.301Z,100217.44
2022-10-22T04:42:25.310Z,100206.81
2022-10-22T04:44:52.258Z,100215.34
2022-10-22T04:47:19.231Z,100217.03
2022-10-22T04:49:46.169Z,100213.22
2022-10-22T04:52:13.073Z,100208.53
2022-10-22T04:54:40.089Z,100198.66
2022-10-22T04:57:07.077Z,100198.84
2022-10-22T04:59:34.038Z,100201.19
2022-10-22T05:02:00.957Z,100199.19
2022-10-22T05:04:28.013Z,100205.44
2022-10-22T05:06:54.996Z,100207.09
2022-10-22T05:09:22.080Z,100208.03
2022-10-22T05:11:52.030Z,100206.66
2022-10-22T05:14:22.540Z,100212.59
2022-10-22T05:16:50.146Z,100204.75
2022-10-22T05:19:29.628Z,100197.06
2022-10-22T05:21:59.352Z,100198.13
2022-10-22T05:24:27.507Z,100194.56
2022-10-22T05:26:56.169Z,100205.28
2022-10-22T05:29:23.869Z,100205.28
2022-10-22T05:31:50.980Z,100199.09
2022-10-22T05:34:18.229Z,100204.38
2022-10-22T05:36:45.846Z,100218.25
2022-10-22T05:39:12.959Z,100219.19
2022-10-22T05:41:40.065Z,100220.22
2022-10-22T05:44:07.059Z,100239.31
2022-10-22T05:46:35.454Z,100228.66
2022-10-22T05:49:05.789Z,100242.28
2022-10-22T05:51:35.692Z,100238.03
2022-10-22T05:54:03.750Z,100240.41
2022-10-22T05:56:37.058Z,100233.41
2022-10-22T05:59:04.878Z,100236.72
2022-10-22T06:01:35.456Z,100244.78
2022-10-22T06:04:05.687Z,100249.88
2022-10-22T06:06:35.470Z,100258.44
2022-10-22T06:09:13.682Z,100256.47
2022-10-22T06:11:40.859Z,100263.38
2022-10-22T06:14:07.894Z,100248.84
2022-10-22T06:16:34.979Z,100245.44
2022-10-22T06:19:03.226Z,100254.81
2022-10-22T06:21:31.840Z,100255.81
2022-10-22T06:24:02.761Z,100255.56
2022-10-22T06:26:30.710Z,100255.66
2022-10-22T06:28:58.694Z,100256.72
2022-10-22T06:31:26.856Z,100253.63
2022-10-22T06:33:54.281Z,100254.16
2022-10-22T06:36:23.313Z,100258.94
2022-10-22T06:38:54.879Z,100264.78
2022-10-22T06:41:25.775Z,100256.56
2022-10-22T06:43:57.652Z,100244.53
2022-10-22T06:46:26.361Z,100250.34
2022-10-22T06:48:59.411Z,100248.78
2022-10-22T06:51:27.131Z,100246.22
2022-10-22T06:53:55.805Z,100249.00
2022-10-22T06:56:25.133Z,100251.06
2022-10-22T06:58:54.185Z,100267.50
2022-10-22T07:01:27.273Z,100277.03
2022-10-22T07:03:54.640Z,100280.06
2022-10-22T07:06:22.942Z,100283.16
2022-10-22T07:08:50.111Z,100281.09
2022-10-22T07:11:25.509Z,100288.09
2022-10-22T07:13:55.600Z,100289.88
2022-10-22T07:16:22.741Z,100295.38
2022-10-22T07:18:50.214Z,100301.44
2022-10-22T07:21:20.453Z,100309.03
2022-10-22T07:23:47.798Z,100306.16
2022-10-22T07:26:16.815Z,100308.63
2022-10-22T07:28:44.075Z,100317.41
2022-10-22T07:31:12.783Z,100315.28
2022-10-22T07:33:40.205Z,100319.91
2022-10-22T07:36:09.428Z,100315.16
2022-10-22T07:38:37.339Z,100321.28
2022-10-22T07:41:04.745Z,100318.16
2022-10-22T07:43:31.758Z,100320.66
2022-10-22T07:45:59.923Z,100318.78
2022-10-22T07:48:26.936Z,100312.38
2022-10-22T07:50:53.990Z,100316.16
2022-10-22T07:53:24.285Z,100315.22
2022-10-22T07:55:52.151Z,100303.19
2022-10-22T07:58:20.792Z,100300.50
2022-10-22T08:00:49.771Z,100297.28
2022-10-22T08:03:17.809Z,100301.41
2022-10-22T08:05:45.126Z,100291.63
2022-10-22T08:08:14.592Z,100301.00
2022-10-22T08:10:42.468Z,100299.19
2022-10-22T08:13:09.655Z,100289.09
2022-10-22T08:15:36.860Z,100300.56
2022-10-22T08:18:04.457Z,100289.09
2022-10-22T08:20:31.787Z,100290.19
2022-10-22T08:22:59.558Z,100275.72
2022-10-22T08:25:27.290Z,100286.09
2022-10-22T08:27:54.245Z,100292.91
2022-10-22T08:30:21.225Z,100294.28
2022-10-22T08:32:50.424Z,100301.91
2022-10-22T08:35:20.178Z,100294.56
2022-10-22T08:37:47.054Z,100301.13
2022-10-22T08:40:26.043Z,100290.19
2022-10-22T08:43:18.900Z,100285.00
2022-10-22T08:46:16.839Z,100300.31
2022-10-22T08:48:50.766Z,100285.75
2022-10-22T08:51:21.574Z,100296.22
2022-10-22T08:54:01.346Z,100304.38
2022-10-22T08:56:30.112Z,100305.16
2022-10-22T08:59:14.000Z,100294.75
2022-10-22T09:01:47.447Z,100304.91
2022-10-22T09:04:52.358Z,100313.66
2022-10-22T09:07:19.398Z,100320.22
2022-10-22T09:09:51.840Z,100331.09
2022-10-22T09:12:21.951Z,100333.59
2022-10-22T09:14:49.406Z,100331.16
2022-10-22T09:17:16.300Z,100328.19
2022-10-22T09:20:01.509Z,100328.69
2022-10-22T09:23:00.794Z,100315.59
2022-10-22T09:25:31.046Z,100314.75
2022-10-22T09:28:00.776Z,100338.53
2022-10-22T09:30:31.139Z,100322.16
2022-10-22T09:33:07.153Z,100318.88
2022-10-22T09:35:44.015Z,100310.66
2022-10-22T09:38:14.350Z,100315.59
2022-10-22T09:40:48.068Z,100305.22
2022-10-22T09:43:15.617Z,100311.22
2022-10-22T09:45:44.557Z,100319.13
2022-10-22T09:48:20.561Z,100310.63
2022-10-22T09:50:49.965Z,100313.88
2022-10-22T09:53:28.891Z,100307.88
2022-10-22T09:56:01.174Z,100302.69
2022-10-22T09:58:28.510Z,100309.25
2022-10-22T10:01:00.198Z,100315.84
2022-10-22T10:03:31.090Z,100309.81
2022-10-22T10:06:04.703Z,100313.38
2022-10-22T10:08:33.492Z,100317.47
2022-10-22T10:11:06.769Z,100302.72
2022-10-22T10:13:38.893Z,100309.81
2022-10-22T10:16:27.535Z,100313.63
2022-10-22T10:18:54.584Z,100307.59
2022-10-22T10:21:36.294Z,100296.09
2022-10-22T10:24:03.405Z,100289.22
2022-10-22T10:26:56.604Z,100290.56
2022-10-22T10:29:38.876Z,100297.13
2022-10-22T10:32:48.378Z,100293.31
2022-10-22T10:35:47.709Z,100289.22
2022-10-22T10:38:17.580Z,100291.09
2022-10-22T10:40:53.727Z,100282.56
2022-10-22T10:43:25.751Z,100291.09
2022-10-22T10:46:01.854Z,100293.06
2022-10-22T10:48:41.000Z,100279.25
2022-10-22T10:51:40.902Z,100284.66
2022-10-22T10:54:27.574Z,100286.84
2022-10-22T10:57:03.186Z,100292.28
2022-10-22T10:59:51.732Z,100296.78
2022-10-22T11:02:21.167Z,100278.81
2022-10-22T11:04:57.131Z,100280.38
2022-10-22T11:07:37.255Z,100282.47
2022-10-22T11:10:24.491Z,100279.03
2022-10-22T11:12:57.655Z,100273.84
2022-10-22T11:15:27.240Z,100274.59
2022-10-22T11:17:56.802Z,100266.91
2022-10-22T11:20:31.617Z,100267.13
2022-10-22T11:23:19.859Z,100265.09
2022-10-22T11:25:49.361Z,100263.31
2022-10-22T11:28:28.568Z,100258.03
2022-10-22T11:31:01.716Z,100262.56
2022-10-22T11:33:37.007Z,100256.00
2022-10-22T11:36:06.522Z,100249.06
2022-10-22T11:38:35.852Z,100245.25
2022-10-22T11:41:13.513Z,100226.22
2022-10-22T11:44:19.699Z,100239.34
2022-10-22T11:46:54.190Z,100233.56
2022-10-22T11:49:42.034Z,100219.28
2022-10-22T11:52:40.556Z,100231.38
2022-10-22T11:55:35.016Z,100243.94
2022-10-22T11:58:22.946Z,100241.06
2022-10-22T12:00:50.038Z,100232.53
2022-10-22T12:03:19.887Z,100230.56
2022-10-22T12:05:46.872Z,100220.56
2022-10-22T12:08:33.448Z,100230.75
2022-10-22T12:11:13.725Z,100218.53
2022-10-22T12:13:58.908Z,100231.78
2022-10-22T12:16:37.944Z,100225.09
2022-10-22T12:19:34.127Z,100227.38
2022-10-22T12:22:23.526Z,100217.88
2022-10-22T12:24:54.145Z,100210.97
2022-10-22T12:27:27.511Z,100209.44
2022-10-22T12:29:59.820Z,100199.00
2022-10-22T12:32:37.140Z,100200.66
2022-10-22T12:35:19.327Z,100196.88
2022-10-22T12:37:54.535Z,100197.56
2022-10-22T12:40:25.810Z,100191.50
2022-10-22T12:42:59.149Z,100195.81
2022-10-22T12:45:28.580Z,100176.41
2022-10-22T12:48:05.042Z,100177.44
2022-10-22T12:50:37.650Z,100175.56
2022-10-22T12:53:20.031Z,100190.66
2022-10-22T12:55:50.196Z,100172.81
2022-10-22T12:58:22.578Z,100179.94
2022-10-22T13:00:57.617Z,100171.22
2022-10-22T13:03:29.211Z,100168.50
2022-10-22T13:05:56.418Z,100172.44
2022-10-22T13:08:27.462Z,100173.25
2022-10-22T13:10:55.197Z,100170.50
2022-10-22T13:13:34.501Z,100159.50
2022-10-22T13:16:21.946Z,100156.75
2022-10-22T13:18:49.126Z,100160.31
2022-10-22T13:21:38.219Z,100148.56
2022-10-22T13:24:23.592Z,100149.88
2022-10-22T13:26:54.445Z,100135.09
2022-10-22T13:29:23.620Z,100142.28
2022-10-22T13:31:52.790Z,100144.41
2022-10-22T13:34:22.017Z,100142.34
2022-10-22T13:36:50.510Z,100143.09
2022-10-22T13:39:22.820Z,100134.66
2022-10-22T13:41:51.112Z,100145.59
2022-10-22T13:44:18.960Z,100144.31
2022-10-22T13:46:48.086Z,100150.06
2022-10-22T13:49:22.591Z,100146.81
2022-10-22T13:51:51.036Z,100138.63
2022-10-22T13:54:24.373Z,100150.41
2022-10-22T13:56:51.373Z,100142.50
2022-10-22T13:59:21.304Z,100146.94
2022-10-22T14:01:51.159Z,100146.63
2022-10-22T14:04:18.233Z,100161.66
2022-10-22T14:06:45.254Z,100158.25
2022-10-22T14:09:15.469Z,100165.31
2022-10-22T14:11:43.236Z,100171.59
2022-10-22T14:14:14.342Z,100173.28
2022-10-22T14:16:41.824Z,100186.06
2022-10-22T14:19:14.591Z,100189.09
2022-10-22T14:21:41.710Z,100213.88
2022-10-22T14:24:12.980Z,100209.38
2022-10-22T14:26:40.995Z,100224.31
2022-10-22T14:29:10.188Z,100241.91
2022-10-22T14:31:43.837Z,100234.03
2022-10-22T14:34:13.412Z,100236.00
2022-10-22T14:36:40.561Z,100242.25
2022-10-22T14:39:08.598Z,100235.28
2022-10-22T14:41:36.972Z,100237.13
2022-10-22T14:44:04.083Z,100244.94
2022-10-22T14:46:31.128Z,100254.31
2022-10-22T14:48:58.567Z,100258.28
2022-10-22T14:51:25.654Z,100267.22
2022-10-22T14:53:52.671Z,100270.59
2022-10-22T14:56:22.653Z,100305.88
2022-10-22T14:58:50.200Z,100301.28
2022-10-22T15:01:17.606Z,100314.44
2022-10-22T15:03:44.976Z,100326.50
2022-10-22T15:06:12.137Z,100319.28
2022-10-22T15:08:39.719Z,100322.72
2022-10-22T15:11:10.522Z,100323.94
2022-10-22T15:13:37.677Z,100330.41
2022-10-22T15:16:09.716Z,100353.84
2022-10-22T15:18:37.001Z,100372.34
2022-10-22T15:21:13.987Z,100367.31
2022-10-22T15:23:41.031Z,100388.75
2022-10-22T15:26:08.857Z,100404.22
2022-10-22T15:28:37.190Z,100415.78
2022-10-22T15:31:05.014Z,100421.47
2022-10-22T15:33:34.588Z,100418.84
2022-10-22T15:36:11.644Z,100450.81
2022-10-22T15:38:38.883Z,100477.34
2022-10-22T15:41:07.444Z,100478.03
2022-10-22T15:43:35.075Z,100457.66
2022-10-22T15:46:34.716Z,100466.72
2022-10-22T15:49:02.657Z,100470.97
2022-10-22T15:51:29.631Z,100480.78
2022-10-22T15:53:58.671Z,100481.09
2022-10-22T15:56:28.051Z,100487.38
2022-10-22T15:59:00.379Z,100491.59
2022-10-22T16:01:27.796Z,100499.16
2022-10-22T16:04:00.386Z,100507.16
2022-10-22T16:06:40.473Z,100513.75
2022-10-22T16:09:10.785Z,100522.84
2022-10-22T16:11:38.996Z,100516.34
2022-10-22T16:14:07.583Z,100523.53
2022-10-22T16:16:36.652Z,100546.53
2022-10-22T16:19:03.705Z,100549.84
2022-10-22T16:21:30.781Z,100530.88
2022-10-22T16:24:00.157Z,100538.16
2022-10-22T16:26:29.381Z,100558.19
2022-10-22T16:28:58.431Z,100551.47
2022-10-22T16:31:25.465Z,100555.16
2022-10-22T16:33:52.647Z,100565.72
2022-10-22T16:36:21.201Z,100563.03
2022-10-22T16:38:48.991Z,100553.25
2022-10-22T16:41:20.711Z,100567.72
2022-10-22T16:43:49.875Z,100568.56
2022-10-22T16:46:21.440Z,100566.22
2022-10-22T16:48:50.791Z,100571.03
2022-10-22T16:51:21.596Z,100574.69
2022-10-22T16:53:49.193Z,100579.66
2022-10-22T16:56:16.819Z,100586.47
2022-10-22T16:58:54.557Z,100588.38
2022-10-22T17:01:24.383Z,100577.28
2022-10-22T17:03:53.680Z,100560.69
2022-10-22T17:06:22.414Z,100564.31
2022-10-22T17:08:49.473Z,100580.47
2022-10-22T17:11:19.490Z,100587.19
2022-10-22T17:13:49.102Z,100588.63
2022-10-22T17:16:18.884Z,100603.59
2022-10-22T17:21:34.315Z,100600.03
2022-10-22T17:24:01.238Z,100598.97
2022-10-22T17:26:28.729Z,100600.25
2022-10-22T17:28:55.749Z,100598.38
2022-10-22T17:31:31.882Z,100611.22
2022-10-22T17:34:00.174Z,100614.97
2022-10-22T17:36:33.215Z,100619.81
2022-10-22T17:39:06.382Z,100637.03
2022-10-22T17:41:36.295Z,100643.03
2022-10-22T17:44:04.839Z,100654.47
2022-10-22T17:46:32.653Z,100649.69
2022-10-22T17:49:02.466Z,100648.00
2022-10-22T17:51:30.542Z,100652.97
2022-10-22T17:53:57.973Z,100643.88
2022-10-22T17:56:27.521Z,100652.34
2022-10-22T17:58:55.562Z,100655.06
2022-10-22T18:01:25.494Z,100658.03
2022-10-22T18:03:54.283Z,100643.75
2022-10-22T18:06:22.179Z,100647.66
2022-10-22T18:08:49.314Z,100658.97
2022-10-22T18:11:19.058Z,100661.69
2022-10-22T18:13:50.296Z,100671.94
2022-10-22T18:16:17.991Z,100679.00
2022-10-22T18:18:50.158Z,100695.72
2022-10-22T18:21:18.006Z,100699.50
2022-10-22T18:23:45.786Z,100709.28
2022-10-22T18:26:13.590Z,100726.94
2022-10-22T18:28:40.867Z,100724.47
2022-10-22T18:31:10.185Z,100721.97
2022-10-22T18:33:37.518Z,100721.97
2022-10-22T18:36:19.161Z,100714.66
2022-10-22T18:39:00.637Z,100712.81
2022-10-22T18:41:29.836Z,100724.53
2022-10-22T18:44:02.592Z,100725.38
2022-10-22T18:46:31.111Z,100740.47
2022-10-22T18:48:59.098Z,100731.34
2022-10-22T18:51:30.316Z,100721.34
2022-10-22T18:54:05.441Z,100727.59
2022-10-22T18:56:40.843Z,100735.47
2022-10-22T18:59:15.476Z,100747.97
2022-10-22T19:01:42.442Z,100761.88
2022-10-22T19:04:09.414Z,100787.69
2022-10-22T19:06:37.107Z,100797.88
2022-10-22T19:09:05.371Z,100787.34
2022-10-22T19:11:32.851Z,100783.22
2022-10-22T19:13:59.832Z,100781.09
2022-10-22T19:16:28.702Z,100782.75
2022-10-22T19:19:02.187Z,100801.34
2022-10-22T19:21:29.711Z,100809.03
2022-10-22T19:23:58.353Z,100820.03
2022-10-22T19:26:26.707Z,100831.00
2022-10-22T19:28:54.933Z,100829.13
2022-10-22T19:31:25.601Z,100815.94
2022-10-22T19:33:55.465Z,100806.50
2022-10-22T19:36:28.073Z,100812.72
2022-10-22T19:38:55.603Z,100825.59
2022-10-22T19:41:24.729Z,100820.03
2022-10-22T19:43:53.487Z,100833.72
2022-10-22T19:46:22.076Z,100832.16
2022-10-22T19:48:49.937Z,100829.72
2022-10-22T19:51:22.181Z,100839.38
2022-10-22T19:53:49.792Z,100837.94
2022-10-22T19:56:19.819Z,100845.59
2022-10-22T19:58:47.327Z,100852.69
2022-10-22T20:01:17.662Z,100847.25
2022-10-22T20:03:45.455Z,100854.19
2022-10-22T20:06:15.272Z,100853.34
2022-10-22T20:08:42.236Z,100850.56
2022-10-22T20:11:16.685Z,100850.56
2022-10-22T20:13:46.629Z,100856.97
2022-10-22T20:16:19.541Z,100858.53
2022-10-22T20:18:46.599Z,100858.94
2022-10-22T20:21:15.289Z,100858.84
2022-10-22T20:23:43.318Z,100856.19
2022-10-22T20:26:10.579Z,100858.91
2022-10-22T20:28:38.603Z,100865.69
2022-10-22T20:31:14.897Z,100868.91
2022-10-22T20:33:42.045Z,100870.41
2022-10-22T20:36:19.766Z,100877.50
2022-10-22T20:38:48.431Z,100880.81
2022-10-22T20:41:18.809Z,100871.69
2022-10-22T20:43:46.757Z,100871.16
2022-10-22T20:46:18.335Z,100871.78
2022-10-22T20:48:46.102Z,100876.06
2022-10-22T20:51:13.208Z,100876.72
2022-10-22T20:53:40.299Z,100896.34
2022-10-22T20:56:08.609Z,100900.28
2022-10-22T20:58:35.969Z,100892.81
2022-10-22T21:01:10.074Z,100894.63
2022-10-22T21:03:37.972Z,100889.03
2022-10-22T21:06:05.984Z,100891.69
2022-10-22T21:08:35.514Z,100890.88
2022-10-22T21:11:06.147Z,100889.59
2022-10-22T21:13:33.579Z,100894.63
2022-10-22T21:16:10.726Z,100893.59
2022-10-22T21:18:38.113Z,100892.97
2022-10-22T21:21:06.187Z,100886.94
2022-10-22T21:23:34.703Z,100888.94
2022-10-22T21:26:01.831Z,100894.81
2022-10-22T21:30:57.088Z,100876.53
2022-10-22T21:33:24.168Z,100886.53
2022-10-22T21:35:55.632Z,100885.97
2022-10-22T21:38:23.995Z,100879.41
2022-10-22T21:40:51.348Z,100884.63
2022-10-22T21:43:18.523Z,100889.44
2022-10-22T21:45:45.514Z,100878.81
2022-10-22T21:48:14.435Z,100881.22
2022-10-22T21:50:42.856Z,100878.13
2022-10-22T21:53:12.086Z,100886.38
2022-10-22T21:55:42.358Z,100889.75
2022-10-22T21:58:09.445Z,100886.47
2022-10-22T22:00:36.959Z,100886.50
2022-10-22T22:03:06.458Z,100886.22
2022-10-22T22:05:33.440Z,100893.53
2022-10-22T22:08:00.420Z,100883.47
2022-10-22T22:10:27.427Z,100893.59
2022-10-22T22:12:54.342Z,100887.19
2022-10-22T22:15:21.361Z,100881.97
2022-10-22T22:17:48.351Z,100889.47
2022-10-22T22:20:15.505Z,100892.06
2022-10-22T22:22:42.856Z,100888.56
2022-10-22T22:25:10.161Z,100896.69
2022-10-22T22:27:37.207Z,100897.75
2022-10-22T22:30:05.060Z,100899.13
2022-10-22T22:32:31.975Z,100888.56
2022-10-22T22:34:58.911Z,100887.75
2022-10-22T22:37:27.512Z,100882.38
2022-10-22T22:39:54.750Z,100870.34
2022-10-22T22:42:21.765Z,100871.00
2022-10-22T22:44:48.818Z,100883.09
2022-10-22T22:47:15.877Z,100884.94
2022-10-22T22:49:42.986Z,100881.16
2022-10-22T22:52:10.106Z,100893.50
2022-10-22T22:54:37.181Z,100892.53
2022-10-22T22:57:04.191Z,100892.97
2022-10-22T22:59:31.312Z,100894.81
2022-10-22T23:01:58.597Z,100892.31
2022-10-22T23:04:26.449Z,100888.84
2022-10-22T23:06:53.476Z,100886.75
2022-10-22T23:09:21.766Z,100885.72
2022-10-22T23:11:49.209Z,100889.22
2022-10-22T23:14:18.767Z,100880.53
2022-10-22T23:16:49.229Z,100877.84
2022-10-22T23:19:18.967Z,100871.00
2022-10-22T23:21:55.046Z,100867.28
2022-10-22T23:24:25.177Z,100872.88
2022-10-22T23:26:52.923Z,100865.41
2022-10-22T23:29:26.361Z,100859.75
2022-10-22T23:31:54.263Z,100857.47
2022-10-22T23:34:23.706Z,100854.94
2022-10-22T23:36:52.086Z,100854.59
2022-10-22T23:39:21.802Z,100853.16
2022-10-22T23:41:58.868Z,100850.69
2022-10-22T23:44:26.060Z,100854.84
2022-10-22T23:46:53.029Z,100850.06
2022-10-22T23:49:20.031Z,100849.25
2022-10-22T23:51:47.362Z,100839.25
2022-10-22T23:54:18.499Z,100844.47
2022-10-22T23:56:45.609Z,100847.34
